AirNav   Pilot Hours Calculator
 
 1610 users online  

M50 Boardman Airport
Boardman, Oregon, USA

GOING TO BOARDMAN?


FAA INFORMATION EFFECTIVE 25 APRIL 2019

Location

FAA Identifier: M50
Lat/Long: 45-48-53.3700N / 119-49-13.8020W
45-48.889500N / 119-49.230033W
45.8148250 / -119.8205006
(estimated)
Elevation: 395.5 ft. / 120.5 m (surveyed)
Variation: 19E (1985)
From city: 4 miles SW of BOARDMAN, OR
Time zone: UTC -7 (UTC -8 during Standard Time)
Zip code: 97818

Airport Operations

Airport use: Open to the public
Activation date: 12/1943
Control tower: no
ARTCC: SEATTLE CENTER
FSS: MC MINNVILLE FLIGHT SERVICE STATION
NOTAMs facility: MMV (NOTAM-D service available)
Attendance: UNATNDD
Wind indicator: lighted
Segmented circle: yes
MARKED WITH WHITE TIRES.
Lights: ACTVT MIRL RY 04/22 - 122.900.
Beacon: white-green (lighted land airport)
Operates sunset to sunrise.

Airport Communications

CTAF: 122.9

Nearby radio navigation aids

VOR radial/distance  VOR name  Freq  Var
PDTr261/37.6PENDLETON VORTAC114.7020E

Airport Services

Parking: tiedowns
Airframe service: NONE
Powerplant service: NONE

Runway Information

Runway 4/22

Dimensions: 4200 x 100 ft. / 1280 x 30 m
Surface: asphalt, in good condition
Weight bearing capacity: 
Single wheel: 30.0
Runway edge lights: medium intensity
Runway edge markings: RWY CNTRLN IN POOR COND DUE TO FADING.
Gradient: SW
RUNWAY 4  RUNWAY 22
Latitude: 45-48.728717N45-49.050250N
Longitude: 119-49.667383W119-48.792633W
Elevation: 395.5 ft.366.3 ft.
Traffic pattern: leftright
Runway heading: 043 magnetic, 062 true223 magnetic, 242 true
Markings: basic, in good conditionbasic, in good condition
Touchdown point: yes, no lightsyes, no lights

Airport Ownership and Management from official FAA records

Ownership: Publicly-owned
Owner: PORT OF MORROW
P.O. BOX 200
BOARDMAN, OR 97818
Phone 541-481-7678
Manager: LISA MITTELSDORF
PORT OF MORROW BOX 200
BOARDMAN, OR 97818
Phone 541-481-7678

Airport Operational Statistics

Aircraft operations: avg 29/week *
80% transient general aviation
17% local general aviation
3% air taxi
* for 12-month period ending 28 January 2019

Additional Remarks

TELEPHONE AVBL.
TRIPLE PLINE RUNS EAST-WEST 3000 FT N OF ARPT.
TAXIWAY EDGE MARKED WITH BLUE REFLECTORS.

Instrument Procedures

There are no published instrument procedures at M50.

Some nearby airports with instrument procedures:

9S9 - Lexington Airport (22 nm S)
KHRI - Hermiston Municipal Airport (23 nm E)
KRLD - Richland Airport (36 nm NE)
KPSC - Tri-Cities Airport (40 nm NE)
KPDT - Eastern Oregon Regional Airport at Pendleton (42 nm E)
 
Loc | Ops | Rwys | IFR | FBO | Links
Com | Nav | Svcs | Stats | Notes
Area around M50 (Boardman Airport)
 
Road maps at: MapQuest Bing Google
 
Aerial photo
WARNING: Photo may not be current or correct
Aerial photo of M50 (Boardman Airport)
Do you have a better or more recent aerial photo of Boardman Airport that you would like to share? If so, please send us your photo.

 
Sectional chart

 
Airport distance calculator
Flying to Boardman Airport? Find the distance to fly.

From to M50

Sunrise and sunset
Times for 20-May-2019
 Local
(UTC-7)
 Zulu
(UTC)
Morning civil twilight04:4711:47
Sunrise05:2312:23
Sunset20:2903:29
Evening civil twilight21:0404:04

Current date and time
Zulu (UTC)  20-May-2019 19:53:54
Local (UTC-7)  20-May-2019 12:53:54
 
METAR
KHRI 
23nm E 
201853Z AUTO VRB06KT 10SM CLR 20/03 A2971 RMK AO2 SLP058 T02000028
K1S5 
31nm N 
201935Z AUTO 27010G16KT 10SM BKN110 19/05 A2971 RMK AO2 T01880046
KRLD 
36nm NE 
201935Z AUTO 00000KT 10SM SCT110 21/02 A2970 RMK AO2 T02100024
KPSC 
40nm NE 
201853Z 36007KT 10SM CLR 21/02 A2972 RMK AO2 SLP062 T02110022
KPDT 
42nm E 
201853Z 00000KT 10SM CLR 16/07 A2972 RMK AO2 SLP057 T01610072
TAF
KPSC 
40nm NE 
201734Z 2018/2118 34007KT P6SM FEW080 SCT150 FM210000 21009KT P6SM SCT080 BKN200 FM210900 20008KT P6SM VCSH FEW050 SCT070 BKN090 FM211200 20008KT 6SM -RA BR SCT030 BKN050 OVC070 FM211730 31007KT P6SM VCSH SCT030 BKN050 OVC070
KPDT 
42nm E 
201734Z 2018/2118 27009G16KT P6SM SCT070 FM210600 22007KT P6SM VCSH SCT050 BKN070 OVC090 FM211100 22006KT 6SM -RA BR SCT030 BKN050 OVC070 FM211730 25008KT P6SM VCSH SCT025 BKN040 OVC060
NOTAMs
Click for the latest NOTAMs
NOTAMs are issued by the DoD/FAA and will open in a separate window not controlled by AirNav.

 

 
 

Would you like to see your business listed on this page?

 If your business provides an interesting product or service to pilots, flight crews, aircraft, or users of the Boardman Airport, you should consider listing it here.  To start the listing process, click on the button below
 
Add a business
 

Other Pages about Boardman Airport

Update a link
 
Copyright © AirNav, LLC. All rights reserved. Privacy Policy  Contact